sensor_id;sensor_type;location;lat;lon;timestamp;pressure;altitude;pressure_sealevel;temperature;humidity
49813;BME280;35706;52.100;5.056;2023-05-21T10:18:09;101722.75;;;20.61;63.08
49813;BME280;35706;52.100;5.056;2023-05-21T10:19:12;101713.84;;;20.69;62.75
49813;BME280;35706;52.100;5.056;2023-05-21T10:20:13;101723.16;;;20.73;62.77
49813;BME280;35706;52.100;5.056;2023-05-21T10:21:14;101718.69;;;20.65;62.36
49813;BME280;35706;52.100;5.056;2023-05-21T10:22:14;101727.09;;;20.62;62.52
49813;BME280;35706;52.100;5.056;2023-05-21T10:23:17;101730.84;;;20.68;62.37
49813;BME280;35706;52.100;5.056;2023-05-21T10:24:17;101733.94;;;20.80;62.33
49813;BME280;35706;52.100;5.056;2023-05-21T10:25:19;101727.59;;;20.81;62.09
49813;BME280;35706;52.100;5.056;2023-05-21T10:26:20;101721.06;;;20.98;61.72
49813;BME280;35706;52.100;5.056;2023-05-21T10:27:21;101721.97;;;21.05;61.50
49813;BME280;35706;52.100;5.056;2023-05-21T10:28:22;101726.22;;;21.14;61.63
49813;BME280;35706;52.100;5.056;2023-05-21T10:29:24;101725.22;;;21.15;61.40
49813;BME280;35706;52.100;5.056;2023-05-21T10:30:24;101718.09;;;21.23;61.34
49813;BME280;35706;52.100;5.056;2023-05-21T10:31:25;101713.84;;;21.28;60.89
49813;BME280;35706;52.100;5.056;2023-05-21T10:32:26;101714.13;;;21.33;60.55
49813;BME280;35706;52.100;5.056;2023-05-21T10:33:28;101713.19;;;21.41;60.46
49813;BME280;35706;52.100;5.056;2023-05-21T10:34:28;101714.22;;;21.40;60.54
49813;BME280;35706;52.100;5.056;2023-05-21T10:35:31;101713.28;;;21.33;60.37
49813;BME280;35706;52.100;5.056;2023-05-21T10:36:33;101711.44;;;21.33;60.02
49813;BME280;35706;52.100;5.056;2023-05-21T10:37:35;101715.97;;;21.33;59.88
49813;BME280;35706;52.100;5.056;2023-05-21T10:38:37;101710.44;;;21.34;60.48
49813;BME280;35706;52.100;5.056;2023-05-21T10:39:38;101725.28;;;21.37;60.47
49813;BME280;35706;52.100;5.056;2023-05-21T10:40:38;101711.72;;;21.39;60.40
49813;BME280;35706;52.100;5.056;2023-05-21T10:42:14;101713.78;;;21.51;59.81
49813;BME280;35706;52.100;5.056;2023-05-21T10:44:59;101715.78;;;21.64;59.90
49813;BME280;35706;52.100;5.056;2023-05-21T10:47:22;101715.59;;;21.66;59.93
49813;BME280;35706;52.100;5.056;2023-05-21T10:48:41;101707.56;;;21.66;59.70
49813;BME280;35706;52.100;5.056;2023-05-21T10:50:00;101719.59;;;21.55;59.92
49813;BME280;35706;52.100;5.056;2023-05-21T10:51:17;101716.81;;;21.63;59.85
49813;BME280;35706;52.100;5.056;2023-05-21T10:52:43;101709.41;;;21.65;59.62
49813;BME280;35706;52.100;5.056;2023-05-21T10:56:40;101704.38;;;21.77;59.33
49813;BME280;35706;52.100;5.056;2023-05-21T10:57:59;101713.25;;;21.78;58.92
49813;BME280;35706;52.100;5.056;2023-05-21T11:00:35;101712.25;;;21.79;58.61
49813;BME280;35706;52.100;5.056;2023-05-21T11:01:36;101707.72;;;21.79;58.42
49813;BME280;35706;52.100;5.056;2023-05-21T11:02:38;101705.50;;;21.83;58.49
49813;BME280;35706;52.100;5.056;2023-05-21T11:03:39;101705.66;;;21.81;58.57
49813;BME280;35706;52.100;5.056;2023-05-21T11:04:43;101709.75;;;21.77;58.25
49813;BME280;35706;52.100;5.056;2023-05-21T11:06:51;101714.41;;;21.90;58.66
49813;BME280;35706;52.100;5.056;2023-05-21T11:07:53;101713.41;;;21.91;59.34
49813;BME280;35706;52.100;5.056;2023-05-21T11:08:56;101708.94;;;21.98;58.56
49813;BME280;35706;52.100;5.056;2023-05-21T11:10:34;101714.09;;;22.00;58.10
49813;BME280;35706;52.100;5.056;2023-05-21T11:11:48;101707.91;;;21.99;58.46
49813;BME280;35706;52.100;5.056;2023-05-21T11:15:25;101693.84;;;22.12;57.84
49813;BME280;35706;52.100;5.056;2023-05-21T11:16:25;101702.28;;;22.15;57.67
49813;BME280;35706;52.100;5.056;2023-05-21T11:17:37;101684.97;;;22.11;57.51
49813;BME280;35706;52.100;5.056;2023-05-21T11:19:39;101688.31;;;22.20;57.51
49813;BME280;35706;52.100;5.056;2023-05-21T11:20:48;101691.50;;;22.24;57.56
49813;BME280;35706;52.100;5.056;2023-05-21T11:21:49;101692.94;;;22.26;57.46
49813;BME280;35706;52.100;5.056;2023-05-21T11:22:50;101693.34;;;22.23;57.66
49813;BME280;35706;52.100;5.056;2023-05-21T11:23:54;101690.31;;;22.33;57.85
49813;BME280;35706;52.100;5.056;2023-05-21T11:25:00;101694.66;;;22.34;57.39
49813;BME280;35706;52.100;5.056;2023-05-21T11:26:01;101682.50;;;22.31;57.43
49813;BME280;35706;52.100;5.056;2023-05-21T11:27:01;101679.19;;;22.29;57.81
49813;BME280;35706;52.100;5.056;2023-05-21T11:28:06;101686.50;;;22.21;58.04
49813;BME280;35706;52.100;5.056;2023-05-21T11:29:09;101679.19;;;22.08;58.32
49813;BME280;35706;52.100;5.056;2023-05-21T11:30:15;101685.16;;;22.10;58.65
49813;BME280;35706;52.100;5.056;2023-05-21T11:31:24;101682.88;;;22.07;58.28
49813;BME280;35706;52.100;5.056;2023-05-21T11:32:25;101680.63;;;22.10;58.71
49813;BME280;35706;52.100;5.056;2023-05-21T11:33:26;101671.56;;;22.11;58.31
49813;BME280;35706;52.100;5.056;2023-05-21T11:34:38;101671.63;;;22.18;58.62
49813;BME280;35706;52.100;5.056;2023-05-21T11:36:46;101677.28;;;22.23;58.38
49813;BME280;35706;52.100;5.056;2023-05-21T11:37:48;101680.41;;;22.27;58.28
49813;BME280;35706;52.100;5.056;2023-05-21T11:39:07;101676.75;;;22.34;58.70
49813;BME280;35706;52.100;5.056;2023-05-21T11:40:22;101680.06;;;22.36;58.48
49813;BME280;35706;52.100;5.056;2023-05-21T11:41:25;101673.25;;;22.34;58.28
49813;BME280;35706;52.100;5.056;2023-05-21T11:43:29;101673.28;;;22.41;58.23
49813;BME280;35706;52.100;5.056;2023-05-21T11:44:46;101671.56;;;22.33;57.84
49813;BME280;35706;52.100;5.056;2023-05-21T11:45:46;101672.84;;;22.37;58.03
49813;BME280;35706;52.100;5.056;2023-05-21T11:46:47;101665.88;;;22.43;58.05
49813;BME280;35706;52.100;5.056;2023-05-21T11:47:48;101663.44;;;22.48;57.99
49813;BME280;35706;52.100;5.056;2023-05-21T11:48:49;101667.00;;;22.55;57.77
49813;BME280;35706;52.100;5.056;2023-05-21T11:49:50;101660.88;;;22.61;57.45
49813;BME280;35706;52.100;5.056;2023-05-21T11:50:51;101658.88;;;22.70;57.60
49813;BME280;35706;52.100;5.056;2023-05-21T11:51:51;101669.75;;;22.62;58.13
49813;BME280;35706;52.100;5.056;2023-05-21T11:52:52;101652.06;;;22.67;57.87
49813;BME280;35706;52.100;5.056;2023-05-21T11:53:52;101650.03;;;22.76;57.89
49813;BME280;35706;52.100;5.056;2023-05-21T11:54:53;101658.53;;;22.80;57.16
49813;BME280;35706;52.100;5.056;2023-05-21T11:55:57;101644.72;;;22.83;57.12
49813;BME280;35706;52.100;5.056;2023-05-21T11:56:59;101645.69;;;22.75;56.58
49813;BME280;35706;52.100;5.056;2023-05-21T11:58:02;101658.28;;;22.74;56.66
49813;BME280;35706;52.100;5.056;2023-05-21T11:59:03;101649.00;;;22.77;56.35
49813;BME280;35706;52.100;5.056;2023-05-21T18:33:29;101559.78;;;22.20;60.63
49813;BME280;35706;52.100;5.056;2023-05-21T18:34:29;101560.56;;;22.35;60.04
49813;BME280;35706;52.100;5.056;2023-05-21T18:35:30;101557.28;;;22.12;61.05
49813;BME280;35706;52.100;5.056;2023-05-21T18:36:30;101558.63;;;22.23;60.64
49813;BME280;35706;52.100;5.056;2023-05-21T18:37:37;101558.97;;;22.20;60.70
49813;BME280;35706;52.100;5.056;2023-05-21T18:38:37;101560.44;;;22.22;60.58
49813;BME280;35706;52.100;5.056;2023-05-21T18:39:38;101561.16;;;22.09;60.96
49813;BME280;35706;52.100;5.056;2023-05-21T18:40:38;101563.88;;;22.16;60.45
49813;BME280;35706;52.100;5.056;2023-05-21T18:41:39;101557.66;;;22.37;60.09
49813;BME280;35706;52.100;5.056;2023-05-21T18:42:39;101556.69;;;22.45;59.62
49813;BME280;35706;52.100;5.056;2023-05-21T18:43:40;101559.13;;;22.11;61.05
49813;BME280;35706;52.100;5.056;2023-05-21T18:44:40;101564.19;;;22.00;61.46
49813;BME280;35706;52.100;5.056;2023-05-21T18:45:41;101556.34;;;21.98;61.52
49813;BME280;35706;52.100;5.056;2023-05-21T18:46:41;101555.63;;;22.11;61.09
49813;BME280;35706;52.100;5.056;2023-05-21T18:47:41;101561.13;;;22.03;61.55
49813;BME280;35706;52.100;5.056;2023-05-21T18:48:42;101559.13;;;22.11;61.24
49813;BME280;35706;52.100;5.056;2023-05-21T18:49:42;101558.31;;;22.11;61.25
49813;BME280;35706;52.100;5.056;2023-05-21T18:50:42;101555.75;;;22.24;60.47
49813;BME280;35706;52.100;5.056;2023-05-21T18:51:43;101557.66;;;22.09;61.25
49813;BME280;35706;52.100;5.056;2023-05-21T18:52:43;101558.44;;;22.03;61.73
49813;BME280;35706;52.100;5.056;2023-05-21T18:53:43;101562.31;;;21.93;62.06
49813;BME280;35706;52.100;5.056;2023-05-21T18:54:44;101548.19;;;22.06;61.75
49813;BME280;35706;52.100;5.056;2023-05-21T18:55:44;101547.38;;;22.06;61.68
49813;BME280;35706;52.100;5.056;2023-05-21T18:56:45;101550.28;;;22.11;61.48
49813;BME280;35706;52.100;5.056;2023-05-21T18:57:45;101549.56;;;22.24;60.99
49813;BME280;35706;52.100;5.056;2023-05-21T18:58:45;101553.91;;;22.25;60.90
49813;BME280;35706;52.100;5.056;2023-05-21T18:59:46;101550.69;;;22.08;61.48
49813;BME280;35706;52.100;5.056;2023-05-21T19:00:46;101559.13;;;22.11;61.10
49813;BME280;35706;52.100;5.056;2023-05-21T19:01:47;101548.56;;;22.03;61.44
49813;BME280;35706;52.100;5.056;2023-05-21T19:02:47;101556.84;;;22.08;61.43
49813;BME280;35706;52.100;5.056;2023-05-21T19:03:47;101563.06;;;22.15;61.19
49813;BME280;35706;52.100;5.056;2023-05-21T19:04:47;101562.56;;;22.05;61.57
49813;BME280;35706;52.100;5.056;2023-05-21T19:05:48;101561.13;;;22.03;61.75
49813;BME280;35706;52.100;5.056;2023-05-21T19:06:48;101555.75;;;22.24;60.96
49813;BME280;35706;52.100;5.056;2023-05-21T19:07:49;101553.78;;;22.11;61.37
49813;BME280;35706;52.100;5.056;2023-05-21T19:08:52;101553.59;;;22.13;61.31
49813;BME280;35706;52.100;5.056;2023-05-21T19:09:54;101559.22;;;21.96;62.02
49813;BME280;35706;52.100;5.056;2023-05-21T19:10:54;101552.22;;;21.95;62.19
49813;BME280;35706;52.100;5.056;2023-05-21T19:11:55;101553.66;;;21.70;63.13
49813;BME280;35706;52.100;5.056;2023-05-21T19:12:56;101556.97;;;21.72;63.26
49813;BME280;35706;52.100;5.056;2023-05-21T19:13:57;101559.78;;;21.64;63.30
49813;BME280;35706;52.100;5.056;2023-05-21T19:14:58;101557.03;;;21.79;62.82
49813;BME280;35706;52.100;5.056;2023-05-21T19:15:58;101558.31;;;21.61;63.47
49813;BME280;35706;52.100;5.056;2023-05-21T19:16:58;101561.25;;;21.94;62.09
49813;BME280;35706;52.100;5.056;2023-05-21T19:17:59;101567.03;;;21.70;63.09
49813;BME280;35706;52.100;5.056;2023-05-21T19:19:00;101559.84;;;21.99;62.04
49813;BME280;35706;52.100;5.056;2023-05-21T19:20:02;101561.84;;;21.90;62.47
49813;BME280;35706;52.100;5.056;2023-05-21T19:21:04;101566.63;;;21.94;62.61
49813;BME280;35706;52.100;5.056;2023-05-21T19:22:05;101561.81;;;21.83;63.03
49813;BME280;35706;52.100;5.056;2023-05-21T19:23:06;101564.44;;;21.77;63.18
49813;BME280;35706;52.100;5.056;2023-05-21T19:24:06;101570.00;;;21.82;63.08
49813;BME280;35706;52.100;5.056;2023-05-21T19:25:07;101561.44;;;21.65;63.40
49813;BME280;35706;52.100;5.056;2023-05-21T19:26:07;101563.84;;;21.81;63.20
49813;BME280;35706;52.100;5.056;2023-05-21T19:27:08;101560.50;;;22.01;62.08
49813;BME280;35706;52.100;5.056;2023-05-21T19:28:08;101562.44;;;21.85;62.82
49813;BME280;35706;52.100;5.056;2023-05-21T19:29:08;101557.41;;;21.75;63.08
49813;BME280;35706;52.100;5.056;2023-05-21T19:30:10;101566.50;;;21.81;63.05
49813;BME280;35706;52.100;5.056;2023-05-21T19:31:10;101566.66;;;21.73;63.60
49813;BME280;35706;52.100;5.056;2023-05-21T19:32:11;101556.13;;;21.71;63.41
49813;BME280;35706;52.100;5.056;2023-05-21T19:33:11;101565.25;;;21.77;63.12
49813;BME280;35706;52.100;5.056;2023-05-21T19:34:12;101561.75;;;21.55;63.82
49813;BME280;35706;52.100;5.056;2023-05-21T19:35:13;101565.56;;;21.46;64.26
49813;BME280;35706;52.100;5.056;2023-05-21T19:36:13;101563.53;;;21.69;63.24
49813;BME280;35706;52.100;5.056;2023-05-21T19:37:14;101565.44;;;21.54;63.78
49813;BME280;35706;52.100;5.056;2023-05-21T19:38:14;101564.44;;;21.55;63.97
49813;BME280;35706;52.100;5.056;2023-05-21T19:39:15;101569.16;;;21.53;63.72
49813;BME280;35706;52.100;5.056;2023-05-21T19:40:15;101570.72;;;21.47;64.19
49813;BME280;35706;52.100;5.056;2023-05-21T19:41:17;101573.84;;;21.72;62.92
49813;BME280;35706;52.100;5.056;2023-05-21T19:42:17;101569.56;;;21.57;63.65
49813;BME280;35706;52.100;5.056;2023-05-21T19:43:20;101572.34;;;21.63;63.36
49813;BME280;35706;52.100;5.056;2023-05-21T19:44:20;101570.84;;;21.61;63.44
49813;BME280;35706;52.100;5.056;2023-05-21T19:45:21;101568.69;;;21.71;63.17
49813;BME280;35706;52.100;5.056;2023-05-21T19:46:21;101574.75;;;21.58;63.68
49813;BME280;35706;52.100;5.056;2023-05-21T19:47:22;101575.81;;;21.85;62.59
49813;BME280;35706;52.100;5.056;2023-05-21T19:48:22;101562.19;;;21.80;62.64
49813;BME280;35706;52.100;5.056;2023-05-21T19:49:22;101563.06;;;21.87;62.22
49813;BME280;35706;52.100;5.056;2023-05-21T19:50:22;101566.78;;;21.65;63.27
49813;BME280;35706;52.100;5.056;2023-05-21T19:51:23;101563.59;;;21.54;63.79
49813;BME280;35706;52.100;5.056;2023-05-21T19:52:23;101565.50;;;21.61;63.04
49813;BME280;35706;52.100;5.056;2023-05-21T19:53:24;101569.50;;;21.50;64.28
49813;BME280;35706;52.100;5.056;2023-05-21T19:54:24;101565.78;;;21.66;63.31
49813;BME280;35706;52.100;5.056;2023-05-21T19:55:24;101575.53;;;21.37;64.28
49813;BME280;35706;52.100;5.056;2023-05-21T19:56:25;101575.63;;;21.29;64.81
49813;BME280;35706;52.100;5.056;2023-05-21T19:57:25;101573.34;;;21.26;64.88
49813;BME280;35706;52.100;5.056;2023-05-21T19:58:26;101571.44;;;21.20;65.15
49813;BME280;35706;52.100;5.056;2023-05-21T19:59:28;101575.06;;;21.48;64.17
49813;BME280;35706;52.100;5.056;2023-05-21T20:00:28;101582.09;;;21.34;64.50
49813;BME280;35706;52.100;5.056;2023-05-21T20:01:29;101581.19;;;21.42;64.47
49813;BME280;35706;52.100;5.056;2023-05-21T20:02:32;101573.59;;;21.31;64.68
49813;BME280;35706;52.100;5.056;2023-05-21T20:03:33;101583.47;;;21.30;64.70
49813;BME280;35706;52.100;5.056;2023-05-21T20:04:34;101582.66;;;21.45;64.29
49813;BME280;35706;52.100;5.056;2023-05-21T20:05:35;101585.38;;;21.15;65.47
49813;BME280;35706;52.100;5.056;2023-05-21T20:06:36;101580.94;;;21.07;65.90
49813;BME280;35706;52.100;5.056;2023-05-21T20:07:36;101582.63;;;21.08;65.65
49813;BME280;35706;52.100;5.056;2023-05-21T20:08:36;101580.88;;;21.37;64.43
49813;BME280;35706;52.100;5.056;2023-05-21T20:09:37;101584.41;;;21.23;65.28
49813;BME280;35706;52.100;5.056;2023-05-21T20:10:37;101590.75;;;21.37;64.42
49813;BME280;35706;52.100;5.056;2023-05-21T20:11:39;101579.06;;;21.23;65.32
49813;BME280;35706;52.100;5.056;2023-05-21T20:12:41;101584.81;;;21.20;65.28
49813;BME280;35706;52.100;5.056;2023-05-21T20:13:41;101580.94;;;21.07;65.93
49813;BME280;35706;52.100;5.056;2023-05-21T20:14:42;101585.66;;;21.05;66.15
49813;BME280;35706;52.100;5.056;2023-05-21T20:15:45;101578.84;;;21.03;66.32
49813;BME280;35706;52.100;5.056;2023-05-21T20:16:46;101581.16;;;20.91;66.58
49813;BME280;35706;52.100;5.056;2023-05-21T20:17:47;101583.84;;;20.91;66.82
49813;BME280;35706;52.100;5.056;2023-05-21T20:18:49;101589.00;;;20.92;66.75
49813;BME280;35706;52.100;5.056;2023-05-21T20:19:49;101576.19;;;20.88;66.80
49813;BME280;35706;52.100;5.056;2023-05-21T20:20:49;101581.53;;;20.88;66.71
49813;BME280;35706;52.100;5.056;2023-05-21T20:21:50;101579.69;;;20.88;66.89
49813;BME280;35706;52.100;5.056;2023-05-21T20:22:52;101593.63;;;20.84;67.13
49813;BME280;35706;52.100;5.056;2023-05-21T20:23:52;101576.47;;;20.93;66.75
49813;BME280;35706;52.100;5.056;2023-05-21T20:24:53;101581.16;;;20.91;67.03
49813;BME280;35706;52.100;5.056;2023-05-21T20:25:54;101592.34;;;20.80;67.07
49813;BME280;35706;52.100;5.056;2023-05-21T20:26:54;101589.41;;;20.74;67.60
49813;BME280;35706;52.100;5.056;2023-05-21T20:27:55;101589.56;;;20.73;67.62
49813;BME280;35706;52.100;5.056;2023-05-21T20:29:02;101584.59;;;20.70;67.55
49813;BME280;35706;52.100;5.056;2023-05-21T20:30:06;101576.69;;;20.77;67.56
49813;BME280;35706;52.100;5.056;2023-05-21T20:31:07;101573.28;;;20.83;67.56
49813;BME280;35706;52.100;5.056;2023-05-21T20:32:08;101581.16;;;20.91;67.00
49813;BME280;35706;52.100;5.056;2023-05-21T20:33:08;101577.41;;;20.85;67.19
49813;BME280;35706;52.100;5.056;2023-05-21T20:34:08;101575.19;;;20.89;67.05
49813;BME280;35706;52.100;5.056;2023-05-21T20:35:11;101570.84;;;20.88;67.29
49813;BME280;35706;52.100;5.056;2023-05-21T20:36:11;101572.50;;;20.89;67.18
49813;BME280;35706;52.100;5.056;2023-05-21T20:37:14;101575.47;;;20.94;67.17
49813;BME280;35706;52.100;5.056;2023-05-21T20:38:14;101573.88;;;20.85;67.37
49813;BME280;35706;52.100;5.056;2023-05-21T20:39:15;101573.16;;;20.76;67.84
49813;BME280;35706;52.100;5.056;2023-05-21T20:40:15;101571.03;;;20.86;67.59
49813;BME280;35706;52.100;5.056;2023-05-21T20:41:15;101572.81;;;20.79;67.57
49813;BME280;35706;52.100;5.056;2023-05-21T20:42:15;101576.88;;;20.75;68.12
49813;BME280;35706;52.100;5.056;2023-05-21T20:43:17;101571.19;;;20.55;68.94
49813;BME280;35706;52.100;5.056;2023-05-21T20:44:17;101569.97;;;20.66;68.57
49813;BME280;35706;52.100;5.056;2023-05-21T20:45:18;101566.00;;;20.62;68.60
49813;BME280;35706;52.100;5.056;2023-05-21T20:46:19;101563.13;;;20.63;68.68
49813;BME280;35706;52.100;5.056;2023-05-21T20:47:20;101563.59;;;20.67;68.30
49813;BME280;35706;52.100;5.056;2023-05-21T20:48:22;101565.53;;;20.58;68.65
49813;BME280;35706;52.100;5.056;2023-05-21T20:49:23;101565.97;;;20.47;69.41
49813;BME280;35706;52.100;5.056;2023-05-21T20:50:23;101563.75;;;20.50;69.32
49813;BME280;35706;52.100;5.056;2023-05-21T20:51:26;101560.91;;;20.52;69.47
49813;BME280;35706;52.100;5.056;2023-05-21T20:52:26;101561.38;;;20.41;69.64
49813;BME280;35706;52.100;5.056;2023-05-21T20:53:26;101567.44;;;20.49;69.82
49813;BME280;35706;52.100;5.056;2023-05-21T20:54:27;101557.63;;;20.65;68.93
49813;BME280;35706;52.100;5.056;2023-05-21T20:55:29;101565.84;;;20.55;69.51
49813;BME280;35706;52.100;5.056;2023-05-21T20:56:33;101564.94;;;20.48;69.27
49813;BME280;35706;52.100;5.056;2023-05-21T20:57:34;101566.16;;;20.30;70.52
49813;BME280;35706;52.100;5.056;2023-05-21T20:58:34;101558.06;;;20.53;69.07
49813;BME280;35706;52.100;5.056;2023-05-21T20:59:35;101572.53;;;20.59;69.10
49813;BME280;35706;52.100;5.056;2023-05-21T21:00:36;101561.16;;;20.57;69.17
49813;BME280;35706;52.100;5.056;2023-05-21T21:01:41;101571.69;;;20.59;69.50
49813;BME280;35706;52.100;5.056;2023-05-21T21:02:41;101575.84;;;20.61;69.42
49813;BME280;35706;52.100;5.056;2023-05-21T21:03:45;101567.19;;;20.59;69.36
49813;BME280;35706;52.100;5.056;2023-05-21T21:04:46;101562.50;;;20.61;69.17
49813;BME280;35706;52.100;5.056;2023-05-21T21:05:48;101566.06;;;20.53;69.66
49813;BME280;35706;52.100;5.056;2023-05-21T21:06:48;101560.75;;;20.68;69.46
49813;BME280;35706;52.100;5.056;2023-05-21T21:07:49;101555.31;;;20.77;69.09
49813;BME280;35706;52.100;5.056;2023-05-21T21:08:49;101562.50;;;20.61;69.43
49813;BME280;35706;52.100;5.056;2023-05-21T21:09:49;101565.34;;;20.45;70.05
49813;BME280;35706;52.100;5.056;2023-05-21T21:10:50;101562.28;;;20.48;70.16
49813;BME280;35706;52.100;5.056;2023-05-21T21:11:50;101563.41;;;20.68;68.44
49813;BME280;35706;52.100;5.056;2023-05-21T21:12:50;101564.69;;;20.43;70.44
49813;BME280;35706;52.100;5.056;2023-05-21T21:13:51;101558.06;;;20.39;69.99
49813;BME280;35706;52.100;5.056;2023-05-21T21:14:51;101563.41;;;20.39;70.26
49813;BME280;35706;52.100;5.056;2023-05-21T21:15:51;101564.13;;;20.47;69.75
49813;BME280;35706;52.100;5.056;2023-05-21T21:16:51;101559.69;;;20.54;69.12
49813;BME280;35706;52.100;5.056;2023-05-21T21:17:52;101556.03;;;20.56;68.40
49813;BME280;35706;52.100;5.056;2023-05-21T21:18:52;101555.56;;;20.37;69.89
49813;BME280;35706;52.100;5.056;2023-05-21T21:19:52;101555.38;;;20.24;70.83
49813;BME280;35706;52.100;5.056;2023-05-21T21:20:53;101565.13;;;20.31;70.59
49813;BME280;35706;52.100;5.056;2023-05-21T21:21:53;101568.34;;;20.27;70.46
49813;BME280;35706;52.100;5.056;2023-05-21T21:22:54;101565.84;;;20.25;70.88
49813;BME280;35706;52.100;5.056;2023-05-21T21:23:54;101563.81;;;20.27;70.86
49813;BME280;35706;52.100;5.056;2023-05-21T21:24:55;101559.44;;;20.49;69.27
49813;BME280;35706;52.100;5.056;2023-05-21T21:25:55;101561.03;;;20.59;68.90
49813;BME280;35706;52.100;5.056;2023-05-21T21:26:56;101568.19;;;20.43;69.69
49813;BME280;35706;52.100;5.056;2023-05-21T21:27:56;101566.09;;;20.68;67.87
49813;BME280;35706;52.100;5.056;2023-05-21T21:28:56;101563.75;;;20.80;67.46
49813;BME280;35706;52.100;5.056;2023-05-21T21:29:58;101558.91;;;20.69;68.04
49813;BME280;35706;52.100;5.056;2023-05-21T21:30:58;101558.34;;;20.73;67.64
49813;BME280;35706;52.100;5.056;2023-05-21T21:31:59;101562.50;;;20.61;68.30
49813;BME280;35706;52.100;5.056;2023-05-21T21:32:59;101556.41;;;20.67;67.97
49813;BME280;35706;52.100;5.056;2023-05-21T21:34:00;101561.03;;;20.59;68.13
49813;BME280;35706;52.100;5.056;2023-05-21T21:35:00;101559.44;;;20.49;68.84
49813;BME280;35706;52.100;5.056;2023-05-21T21:36:00;101561.53;;;20.54;68.77
49813;BME280;35706;52.100;5.056;2023-05-21T21:37:01;101564.16;;;20.62;67.97
49813;BME280;35706;52.100;5.056;2023-05-21T21:38:02;101565.13;;;20.46;68.63
49813;BME280;35706;52.100;5.056;2023-05-21T21:39:03;101561.47;;;20.47;68.66
49813;BME280;35706;52.100;5.056;2023-05-21T21:40:04;101563.47;;;20.30;69.50
49813;BME280;35706;52.100;5.056;2023-05-21T21:41:05;101558.50;;;20.42;68.77
49813;BME280;35706;52.100;5.056;2023-05-21T21:42:06;101560.16;;;20.28;69.40
49813;BME280;35706;52.100;5.056;2023-05-21T21:43:07;101562.72;;;20.07;70.54
49813;BME280;35706;52.100;5.056;2023-05-21T21:44:07;101562.81;;;20.13;70.44
49813;BME280;35706;52.100;5.056;2023-05-21T21:45:08;101560.97;;;20.29;69.30
49813;BME280;35706;52.100;5.056;2023-05-21T21:46:08;101562.84;;;20.43;68.42
49813;BME280;35706;52.100;5.056;2023-05-21T21:47:09;101565.59;;;20.35;69.02
49813;BME280;35706;52.100;5.056;2023-05-21T21:48:09;101561.91;;;20.36;68.76
49813;BME280;35706;52.100;5.056;2023-05-21T21:49:10;101560.06;;;20.22;69.48
49813;BME280;35706;52.100;5.056;2023-05-21T21:50:10;101558.78;;;20.32;69.32
49813;BME280;35706;52.100;5.056;2023-05-21T21:51:11;101561.63;;;20.16;69.68
49813;BME280;35706;52.100;5.056;2023-05-21T21:52:13;101555.16;;;20.10;70.30
49813;BME280;35706;52.100;5.056;2023-05-21T21:53:13;101557.38;;;20.07;70.17
49813;BME280;35706;52.100;5.056;2023-05-21T21:54:14;101559.41;;;20.05;70.40
49813;BME280;35706;52.100;5.056;2023-05-21T21:55:14;101557.13;;;19.93;71.10
49813;BME280;35706;52.100;5.056;2023-05-21T21:56:14;101553.09;;;19.98;70.81
49813;BME280;35706;52.100;5.056;2023-05-21T21:57:15;101551.09;;;20.00;70.83
49813;BME280;35706;52.100;5.056;2023-05-21T21:58:15;101564.50;;;19.91;71.09
49813;BME280;35706;52.100;5.056;2023-05-21T21:59:16;101551.28;;;19.98;71.03
49813;BME280;35706;52.100;5.056;2023-05-21T22:00:16;101558.66;;;19.96;70.82
49813;BME280;35706;52.100;5.056;2023-05-21T22:01:17;101551.56;;;20.03;70.61
49813;BME280;35706;52.100;5.056;2023-05-21T22:02:17;101556.53;;;20.06;70.29
49813;BME280;35706;52.100;5.056;2023-05-21T22:03:18;101553.75;;;20.00;70.79
49813;BME280;35706;52.100;5.056;2023-05-21T22:04:18;101557.72;;;20.04;70.51
49813;BME280;35706;52.100;5.056;2023-05-21T22:05:18;101551.38;;;20.05;69.97
49813;BME280;35706;52.100;5.056;2023-05-21T22:06:19;101552.28;;;19.97;70.96
49813;BME280;35706;52.100;5.056;2023-05-21T22:07:19;101549.44;;;19.99;70.69
49813;BME280;35706;52.100;5.056;2023-05-21T22:08:19;101553.28;;;19.81;71.69
49813;BME280;35706;52.100;5.056;2023-05-21T22:09:20;101554.03;;;19.90;71.23
49813;BME280;35706;52.100;5.056;2023-05-21T22:10:21;101547.84;;;19.89;71.49
49813;BME280;35706;52.100;5.056;2023-05-21T22:11:21;101564.75;;;19.82;71.84
49813;BME280;35706;52.100;5.056;2023-05-21T22:12:22;101552.44;;;19.96;70.16
49813;BME280;35706;52.100;5.056;2023-05-21T22:13:22;101552.88;;;20.22;69.59
49813;BME280;35706;52.100;5.056;2023-05-21T22:14:23;101553.59;;;20.16;69.42
49813;BME280;35706;52.100;5.056;2023-05-21T22:15:24;101549.72;;;20.19;69.64
49813;BME280;35706;52.100;5.056;2023-05-21T22:16:27;101557.66;;;20.12;69.85
49813;BME280;35706;52.100;5.056;2023-05-21T22:17:28;101553.03;;;20.06;70.29
49813;BME280;35706;52.100;5.056;2023-05-21T22:18:29;101539.84;;;19.89;70.60
49813;BME280;35706;52.100;5.056;2023-05-21T22:19:30;101555.56;;;19.84;70.93
49813;BME280;35706;52.100;5.056;2023-05-21T22:20:31;101550.47;;;19.75;71.61
49813;BME280;35706;52.100;5.056;2023-05-21T22:21:33;101558.47;;;19.75;71.20
49813;BME280;35706;52.100;5.056;2023-05-21T22:22:33;101548.97;;;19.95;70.46
49813;BME280;35706;52.100;5.056;2023-05-21T22:23:35;101549.28;;;20.00;69.98
49813;BME280;35706;52.100;5.056;2023-05-21T22:24:35;101546.50;;;20.08;69.86
49813;BME280;35706;52.100;5.056;2023-05-21T22:25:36;101544.41;;;20.19;69.36
49813;BME280;35706;52.100;5.056;2023-05-21T22:26:36;101547.69;;;20.06;69.64
49813;BME280;35706;52.100;5.056;2023-05-21T22:27:37;101543.16;;;19.91;70.47
49813;BME280;35706;52.100;5.056;2023-05-21T22:28:37;101545.38;;;19.88;70.92